• Join FlightAware (Why Join?)
  • Login
  • US Flag 
08:13PM EST


 

Airport Tracker/Info


-or-


 

Live Flight TrackerFlight Track Log ✈ UAL4543 ✈ 25-Apr-2013 ✈ KRDU - KEWR

Flight Track Log - Related Links

Times and Time Zones

All times are in EDT time to prevent confusion due to time zone crossing. See the UAL4543 flight status page for this flight to view local times or setup timezone preferences in your user account.

Time Position Orientation Groundspeed Altitude Reporting Facility
EDT Latitude Longitude Course Direction KTS MPH feet Rate Location/Type
04:15PM 35.8967 -78.7767 18° North 170 196 1,300  Level Washington Center
04:16PM 35.9683 -78.7486 18° North 221 254 3,700 2,460 Climbing Washington Center
04:17PM 36.0381 -78.7233 16° North 240 276 6,800 2,820 Climbing Washington Center
04:18PM 36.1136 -78.6981 15° North 259 298 9,400 2,100 Climbing Washington Center
04:19PM 36.1894 -78.6700 17° North 282 325 11,100 1,440 Climbing Washington Center
04:20PM 36.2781 -78.6400 15° North 333 383 12,300 1,620 Climbing Washington Center
04:21PM 36.3853 -78.6028 16° North 365 420 14,400 1,800 Climbing Washington Center
04:22PM 36.4758 -78.5703 16° North 371 427 15,900 1,500 Climbing Washington Center
04:23PM 36.5811 -78.5356 15° North 376 433 17,500 1,500 Climbing Washington Center
04:24PM 36.7011 -78.4883 18° North 390 449 19,000 1,380 Climbing Washington Center
04:25PM 36.7942 -78.4372 24° Northeast 395 455 20,300 1,380 Climbing Washington Center
04:26PM 36.8964 -78.3500 34° Northeast 414 476 21,800 1,500 Climbing Washington Center
04:27PM 37.0006 -78.2653 33° Northeast 435 501 23,300 1,440 Climbing Washington Center
04:28PM 37.1022 -78.1856 32° Northeast 440 506 24,700 1,380 Climbing Washington Center
04:29PM 37.2000 -78.1028 34° Northeast 440 506 26,100 1,140 Climbing Washington Center
04:30PM 37.3019 -78.0200 33° Northeast 440 506 27,000 420 Climbing Washington Center
04:31PM 37.4100 -77.9267 34° Northeast 446 513 27,000  Level Washington Center
04:32PM 37.5225 -77.8358 33° Northeast 465 535 27,000  Level Washington Center
04:33PM 37.6347 -77.7342 36° Northeast 481 554 27,000  Level Washington Center
04:34PM 37.7428 -77.6350 36° Northeast 486 559 27,000  Level Washington Center
04:35PM 37.8467 -77.5403 36° Northeast 474 545 27,000  Level Washington Center
04:36PM 37.9461 -77.4481 36° Northeast 458 527 27,000  Level Washington Center
04:37PM 38.0475 -77.3611 34° Northeast 453 521 27,000  Level Washington Center
04:38PM 38.1492 -77.2658 36° Northeast 448 516 27,000  Level Washington Center
04:39PM 38.2506 -77.1675 37° Northeast 448 516 27,000  Level Washington Center
04:40PM 38.3539 -77.0769 34° Northeast 453 521 27,000  Level Washington Center
04:41PM 38.4592 -76.9783 36° Northeast 459 528 27,000  Level Washington Center
04:42PM 38.5689 -76.8742 37° Northeast 469 540 27,000  Level Washington Center
04:43PM 38.6783 -76.7697 37° Northeast 479 551 27,000  Level Washington Center
04:44PM 38.7711 -76.6594 43° Northeast 478 550 27,000  Level Washington Center
04:45PM 38.8847 -76.5383 40° Northeast 490 564 27,000  Level Washington Center
04:46PM 38.9878 -76.4169 42° Northeast 495 570 27,000  Level Washington Center
04:47PM 39.0906 -76.3003 41° Northeast 495 570 27,000  Level Washington Center
04:48PM 39.1933 -76.1753 43° Northeast 495 570 27,000  Level Washington Center
04:49PM 39.3022 -76.0556 40° Northeast 508 585 27,000 -300 Level Washington Center
04:51PM 39.4080 -75.9241 44° Northeast  Level FlightAware Approximate
04:51PM 39.5133 -75.8042 44° Northeast 508 585 26,200  Level Washington Center
04:52PM 39.6178 -75.6831 42° Northeast 508 585 24,800 -1,860 Descending Washington Center
04:53PM 39.7197 -75.5619 42° Northeast 501 577 22,500 -2,460 Descending Washington Center
04:54PM 39.8136 -75.4483 43° Northeast 481 554 19,900 -2,460 Descending Washington Center
04:55PM 39.9028 -75.3372 44° Northeast 454 522 17,600 -2,520 Descending Washington Center
04:56PM 39.9858 -75.2367 43° Northeast 429 494 14,900 -2,520 Descending Washington Center
04:57PM 40.0647 -75.1414 43° Northeast 397 457 12,600 -1,980 Descending Washington Center
04:58PM 40.1500 -75.0333 44° Northeast 334 384 10,800 -1,560 Descending New York TRACON
04:59PM 40.2167 -74.9667 37° Northeast 295 339 9,400 -1,440 Descending New York TRACON
05:00PM 40.2667 -74.8833 52° Northeast 283 326 8,000 -900 Descending New York TRACON
05:01PM 40.3167 -74.8167 45° Northeast 282 325 7,600 -720 Descending New York TRACON
05:02PM 40.3667 -74.7333 52° Northeast 278 320 6,600 -840 Descending New York TRACON
05:03PM 40.4333 -74.6667 37° Northeast 277 319 6,000 -300 Descending New York TRACON
05:04PM 40.5000 -74.6500 11° North 272 313 6,000  Level New York TRACON
05:05PM 40.5667 -74.6333 11° North 265 305 6,000  Level New York TRACON
05:06PM 40.6500 -74.6167 North 261 300 6,000  Level New York TRACON
05:07PM 40.7167 -74.5833 21° North 261 300 6,000  Level New York TRACON
05:08PM 40.7833 -74.5500 21° North 260 299 6,000 -300 Level New York TRACON
05:09PM 40.8500 -74.5000 30° Northeast 260 299 5,400 -540 Descending New York TRACON
05:10PM 40.9167 -74.4667 21° North 255 293 5,000 -240 Descending New York TRACON
05:11PM 40.9333 -74.3833 75° East 233 268 5,000 -300 Level New York TRACON
05:12PM 40.9500 -74.3167 72° East 228 262 4,500 -540 Descending New York TRACON
05:13PM 40.9500 -74.2333 90° East 207 238 4,000 -300 Descending New York TRACON
05:14PM 40.9333 -74.1667 108° East 199 229 4,000  Level New York TRACON
05:15PM 40.9000 -74.1000 123° Southeast 198 228 4,000 -300 Level New York TRACON
05:16PM 40.8833 -74.0667 123° Southeast 195 224 3,500 -600 Descending New York TRACON
05:17PM 40.8333 -74.0833 194° South 176 203 2,900 -600 Descending New York TRACON